Time;durP1;ratioP1;P1;durP2;ratioP2;P2;SDS_P1;SDS_P2;PMS_P1;PMS_P2;Temp;Humidity;BMP_temperature;BMP_pressure;BME280_temperature;BME280_humidity;BME280_pressure;Samples;Min_cycle;Max_cycle;Signal;HPM_P1;HPM_P2
2021/07/28 00:01:21;;;;;;;6.97;4.68;;;20.40;77.30;;;;;;4963845;28;20733;-65
2021/07/28 00:03:48;;;;;;;8.48;5.00;;;20.40;77.50;;;;;;4965290;28;20576;-66
2021/07/28 00:06:21;;;;;;;8.32;5.68;;;20.40;77.00;;;;;;4963801;28;20034;-65
2021/07/28 00:08:48;;;;;;;8.20;5.10;;;20.40;77.30;;;;;;4965663;28;20129;-65
2021/07/28 00:11:17;;;;;;;6.38;4.55;;;20.40;76.90;;;;;;4963513;28;20098;-65
2021/07/28 00:13:45;;;;;;;6.38;4.20;;;20.40;77.20;;;;;;4967328;28;20133;-65
2021/07/28 00:16:13;;;;;;;6.72;5.05;;;20.30;76.90;;;;;;4964511;28;20045;-65
2021/07/28 00:23:58;;;;;;;7.00;4.57;;;20.30;77.00;;;;;;4965380;28;20126;-66
2021/07/28 00:26:23;;;;;;;6.78;4.93;;;20.30;77.00;;;;;;4964468;28;20125;-65
2021/07/28 00:28:49;;;;;;;5.13;4.05;;;20.30;77.00;;;;;;4964676;28;20050;-66
2021/07/28 00:31:14;;;;;;;5.80;4.63;;;20.20;77.00;;;;;;4961757;28;20038;-65
2021/07/28 00:33:40;;;;;;;6.60;4.85;;;20.20;77.00;;;;;;4968960;28;20058;-65
2021/07/28 00:36:06;;;;;;;7.18;4.57;;;20.20;77.10;;;;;;4963480;28;20081;-65
2021/07/28 00:38:31;;;;;;;6.75;4.50;;;20.20;77.30;;;;;;4961279;28;20387;-65
2021/07/28 00:40:57;;;;;;;6.38;4.47;;;20.10;77.30;;;;;;4966038;28;20051;-65
2021/07/28 00:43:24;;;;;;;5.78;4.82;;;20.10;78.40;;;;;;4963635;28;20034;-65
2021/07/28 00:45:50;;;;;;;7.65;4.65;;;20.10;77.70;;;;;;4962342;28;20051;-65
2021/07/28 00:48:17;;;;;;;7.38;5.00;;;20.10;77.90;;;;;;4967261;28;20073;-65
2021/07/28 00:50:43;;;;;;;5.90;4.88;;;20.10;78.00;;;;;;4965390;28;20041;-65
2021/07/28 00:53:17;;;;;;;8.80;5.18;;;20.00;78.30;;;;;;4965918;28;20050;-65
2021/07/28 00:55:44;;;;;;;7.00;5.00;;;20.00;78.40;;;;;;4965710;28;20065;-66
2021/07/28 00:58:10;;;;;;;8.18;4.95;;;20.00;78.50;;;;;;4963623;28;20290;-66
2021/07/28 01:00:36;;;;;;;7.40;5.47;;;20.00;78.60;;;;;;4964046;28;20049;-66
2021/07/28 01:03:02;;;;;;;7.32;5.07;;;20.00;78.70;;;;;;4962156;28;20032;-65
2021/07/28 01:05:27;;;;;;;10.23;5.13;;;20.00;78.80;;;;;;4965241;28;20461;-65
2021/07/28 01:07:53;;;;;;;6.72;4.43;;;20.00;79.00;;;;;;4965119;28;20058;-65
2021/07/28 01:10:19;;;;;;;9.95;5.05;;;20.00;79.00;;;;;;4963840;28;20027;-65
2021/07/28 01:12:51;;;;;;;10.25;5.18;;;20.00;79.10;;;;;;4959969;28;20058;-66
2021/07/28 01:15:32;;;;;;;6.47;5.40;;;20.00;79.30;;;;;;4964790;28;20139;-66
2021/07/28 01:18:03;;;;;;;7.53;5.50;;;20.00;79.20;;;;;;4963611;28;20088;-65
2021/07/28 01:20:44;;;;;;;7.10;5.07;;;20.00;79.40;;;;;;4961131;28;20054;-65
2021/07/28 01:23:19;;;;;;;7.63;5.05;;;20.00;79.90;;;;;;4962880;28;20117;-66
2021/07/28 01:25:45;;;;;;;8.52;5.28;;;20.10;80.00;;;;;;4965307;28;21197;-66
2021/07/28 01:28:11;;;;;;;8.18;5.15;;;20.10;79.20;;;;;;4965441;28;20034;-66
2021/07/28 01:30:38;;;;;;;9.40;5.50;;;20.10;79.10;;;;;;4963516;28;20406;-66
2021/07/28 01:33:04;;;;;;;9.20;5.55;;;20.10;79.10;;;;;;4962787;28;20046;-66
2021/07/28 01:35:31;;;;;;;8.30;4.95;;;20.10;79.20;;;;;;4965054;28;20034;-66
2021/07/28 01:37:57;;;;;;;8.35;5.22;;;20.10;79.40;;;;;;4966781;28;20041;-66
2021/07/28 01:40:23;;;;;;;6.95;5.00;;;20.10;79.20;;;;;;4964539;28;20039;-65
2021/07/28 01:42:48;;;;;;;7.40;5.13;;;20.10;79.20;;;;;;4964020;28;20118;-66
2021/07/28 01:45:16;;;;;;;9.27;5.28;;;20.10;79.20;;;;;;4964112;28;20046;-66
2021/07/28 01:47:42;;;;;;;9.10;5.20;;;20.10;79.30;;;;;;4965051;28;20043;-66
2021/07/28 01:50:09;;;;;;;6.60;5.07;;;20.10;79.20;;;;;;4963220;28;20565;-66
2021/07/28 01:52:36;;;;;;;5.88;4.88;;;20.10;79.20;;;;;;4955920;28;20125;-65
2021/07/28 01:55:02;;;;;;;6.70;4.60;;;20.10;79.10;;;;;;4964292;28;20037;-66
2021/07/28 01:57:28;;;;;;;10.25;5.40;;;20.10;78.90;;;;;;4967968;28;20038;-66
2021/07/28 01:59:54;;;;;;;9.40;5.40;;;20.20;78.90;;;;;;4962846;28;20034;-66
2021/07/28 02:02:19;;;;;;;6.80;5.28;;;20.10;78.80;;;;;;4963319;28;20674;-66
2021/07/28 02:04:45;;;;;;;8.70;5.38;;;20.20;78.90;;;;;;4964447;28;20542;-65
2021/07/28 02:07:11;;;;;;;7.70;5.40;;;20.20;78.70;;;;;;4964662;28;20046;-65
2021/07/28 02:09:36;;;;;;;10.13;5.13;;;20.20;78.80;;;;;;4966155;28;20043;-66
2021/07/28 02:12:02;;;;;;;11.38;5.60;;;20.20;79.00;;;;;;4965634;28;20061;-65
2021/07/28 02:14:27;;;;;;;8.85;5.22;;;20.20;78.90;;;;;;4966926;28;20050;-65
2021/07/28 02:16:53;;;;;;;6.80;5.18;;;20.20;78.90;;;;;;4967047;28;20093;-66
2021/07/28 02:19:18;;;;;;;7.03;5.07;;;20.20;78.90;;;;;;4966367;28;20035;-66
2021/07/28 02:21:44;;;;;;;10.20;5.13;;;20.10;79.50;;;;;;4965483;28;20427;-66
2021/07/28 02:24:10;;;;;;;9.65;5.10;;;20.10;79.20;;;;;;4964800;28;20118;-66
2021/07/28 02:26:35;;;;;;;10.13;5.15;;;20.10;79.20;;;;;;4968368;28;20035;-65
2021/07/28 02:29:01;;;;;;;12.48;5.22;;;20.10;79.30;;;;;;4965811;28;20157;-66
2021/07/28 02:31:26;;;;;;;6.57;4.82;;;20.10;79.60;;;;;;4968015;28;20062;-65
2021/07/28 02:33:52;;;;;;;6.40;5.25;;;20.10;79.70;;;;;;4966195;28;20077;-66
2021/07/28 02:36:17;;;;;;;7.10;5.25;;;20.10;79.80;;;;;;4967759;28;20121;-66
2021/07/28 02:38:43;;;;;;;7.20;5.30;;;20.10;79.80;;;;;;4963037;28;20042;-65
2021/07/28 02:41:09;;;;;;;9.25;5.22;;;20.10;79.80;;;;;;4967063;28;20525;-65
2021/07/28 02:43:34;;;;;;;6.43;4.80;;;20.10;80.50;;;;;;4967924;28;20054;-66
2021/07/28 02:46:00;;;;;;;6.10;4.82;;;20.10;79.60;;;;;;4960178;28;20051;-66
2021/07/28 02:48:25;;;;;;;12.13;5.57;;;20.10;79.80;;;;;;4968171;28;20117;-65
2021/07/28 02:50:51;;;;;;;5.40;4.90;;;20.10;79.90;;;;;;4966969;28;20047;-65
2021/07/28 02:53:19;;;;;;;9.68;5.47;;;20.10;79.90;;;;;;4964601;28;20039;-66
2021/07/28 02:55:44;;;;;;;6.68;5.45;;;20.10;80.00;;;;;;4965601;28;20417;-66
2021/07/28 02:58:10;;;;;;;9.75;5.93;;;20.10;80.00;;;;;;4965012;28;20038;-65
2021/07/28 03:00:36;;;;;;;10.20;5.90;;;20.20;79.80;;;;;;4966391;28;20074;-66
2021/07/28 03:03:01;;;;;;;9.80;5.50;;;20.10;79.60;;;;;;4967686;28;20038;-66
2021/07/28 03:05:27;;;;;;;10.18;5.20;;;20.10;79.60;;;;;;4966517;28;20034;-65
2021/07/28 03:07:52;;;;;;;7.00;5.07;;;20.10;79.60;;;;;;4966607;28;20465;-66
2021/07/28 03:10:18;;;;;;;10.68;5.88;;;20.10;79.60;;;;;;4965637;28;20031;-66
2021/07/28 03:12:44;;;;;;;8.63;5.10;;;20.10;79.80;;;;;;4964843;28;20558;-66
2021/07/28 03:15:09;;;;;;;8.23;5.18;;;20.20;80.00;;;;;;4968881;28;20516;-65
2021/07/28 03:17:35;;;;;;;7.00;5.43;;;20.20;79.80;;;;;;4961550;28;20042;-65
2021/07/28 03:20:01;;;;;;;10.48;5.38;;;20.20;79.60;;;;;;4969312;28;20042;-65
2021/07/28 03:22:27;;;;;;;9.95;5.32;;;20.20;79.40;;;;;;4965024;28;20043;-65
2021/07/28 03:24:52;;;;;;;10.05;5.30;;;20.20;79.30;;;;;;4967181;28;20518;-65
2021/07/28 03:27:18;;;;;;;6.97;5.50;;;20.20;79.50;;;;;;4968268;28;20045;-65
2021/07/28 03:29:43;;;;;;;6.18;5.28;;;20.20;79.40;;;;;;4968023;28;20030;-65
2021/07/28 03:32:09;;;;;;;6.97;5.50;;;20.10;79.40;;;;;;4962311;28;20506;-65
2021/07/28 03:34:36;;;;;;;9.48;5.53;;;20.20;79.60;;;;;;4965769;28;20039;-65
2021/07/28 03:37:02;;;;;;;8.48;5.43;;;20.10;79.60;;;;;;4963811;28;20540;-65
2021/07/28 03:39:29;;;;;;;9.85;5.90;;;20.10;79.80;;;;;;4964923;28;20069;-65
2021/07/28 03:41:55;;;;;;;8.13;5.43;;;20.10;79.90;;;;;;4964716;28;20386;-65
2021/07/28 03:44:20;;;;;;;9.13;5.30;;;20.10;80.00;;;;;;4963917;28;20050;-65
2021/07/28 03:46:46;;;;;;;8.38;5.88;;;20.10;80.00;;;;;;4963609;28;20133;-66
2021/07/28 03:49:12;;;;;;;5.90;4.97;;;20.10;80.20;;;;;;4965147;28;20042;-66
2021/07/28 03:51:37;;;;;;;6.75;5.20;;;20.10;80.20;;;;;;4965448;28;20175;-64
2021/07/28 03:54:03;;;;;;;6.45;5.22;;;20.10;80.20;;;;;;4964510;28;20058;-66
2021/07/28 03:56:29;;;;;;;7.85;6.13;;;20.10;80.30;;;;;;4963412;28;20058;-65
2021/07/28 03:58:56;;;;;;;6.85;5.85;;;20.10;80.40;;;;;;4962499;28;20035;-66
2021/07/28 04:01:23;;;;;;;7.90;5.90;;;20.10;80.30;;;;;;4962827;28;20046;-66
2021/07/28 04:03:50;;;;;;;7.43;5.97;;;20.10;81.20;;;;;;4961630;28;20122;-65
2021/07/28 04:06:15;;;;;;;5.60;4.97;;;20.10;80.30;;;;;;4966357;28;20043;-66
2021/07/28 04:08:41;;;;;;;6.65;5.45;;;20.20;80.30;;;;;;4962655;28;20045;-65
2021/07/28 04:11:07;;;;;;;6.07;5.47;;;20.20;80.30;;;;;;4961904;28;20040;-64
2021/07/28 04:13:32;;;;;;;9.30;5.97;;;20.20;80.30;;;;;;4956765;28;20034;-66
2021/07/28 04:15:58;;;;;;;8.95;5.70;;;20.20;80.20;;;;;;4963751;28;20045;-66
2021/07/28 04:18:23;;;;;;;7.47;5.53;;;20.20;80.10;;;;;;4964893;28;20039;-66
2021/07/28 04:20:49;;;;;;;6.60;5.68;;;20.20;80.20;;;;;;4964906;28;20062;-66
2021/07/28 04:23:15;;;;;;;7.30;5.68;;;20.30;80.30;;;;;;4964916;28;20031;-66
2021/07/28 04:25:41;;;;;;;6.53;5.57;;;20.30;80.10;;;;;;4967073;28;20077;-66
2021/07/28 04:28:06;;;;;;;6.60;5.60;;;20.30;80.90;;;;;;4964722;28;20043;-66
2021/07/28 04:30:32;;;;;;;7.63;5.82;;;20.30;80.10;;;;;;4964522;28;20038;-66
2021/07/28 04:32:58;;;;;;;10.35;6.32;;;20.30;80.00;;;;;;4964344;28;20041;-66
2021/07/28 04:35:23;;;;;;;7.05;5.68;;;20.30;81.00;;;;;;4963626;28;20038;-66
2021/07/28 04:37:49;;;;;;;8.05;6.38;;;20.20;80.20;;;;;;4963809;28;20835;-65
2021/07/28 04:40:15;;;;;;;9.35;6.57;;;20.20;80.30;;;;;;4961479;28;20046;-65
2021/07/28 04:42:41;;;;;;;7.40;5.97;;;20.20;80.60;;;;;;4963844;28;20038;-65
2021/07/28 04:45:07;;;;;;;11.20;6.47;;;20.20;80.80;;;;;;4967361;28;20514;-66
2021/07/28 04:47:33;;;;;;;8.57;6.40;;;20.20;80.80;;;;;;4969693;28;20047;-65
2021/07/28 04:49:59;;;;;;;10.27;5.97;;;20.20;80.80;;;;;;4968080;28;20026;-66
2021/07/28 04:52:25;;;;;;;9.25;6.40;;;20.30;80.70;;;;;;4968452;28;20623;-65
2021/07/28 04:54:52;;;;;;;7.70;6.00;;;20.30;80.80;;;;;;4968077;28;20039;-66
2021/07/28 04:57:18;;;;;;;10.00;6.80;;;20.30;80.90;;;;;;4968383;28;20031;-65
2021/07/28 04:59:44;;;;;;;8.57;6.63;;;20.30;80.80;;;;;;4970605;28;20037;-66
2021/07/28 05:02:10;;;;;;;9.82;6.93;;;20.40;81.00;;;;;;4968076;28;20039;-66
2021/07/28 05:04:35;;;;;;;9.55;6.50;;;20.40;81.20;;;;;;4968284;28;20042;-66
2021/07/28 05:07:01;;;;;;;12.15;6.68;;;20.40;81.30;;;;;;4965613;28;20039;-65
2021/07/28 05:09:27;;;;;;;10.10;7.15;;;20.40;81.20;;;;;;4967664;28;20039;-66
2021/07/28 05:11:52;;;;;;;11.80;7.43;;;20.50;81.30;;;;;;4965367;28;20058;-66
2021/07/28 05:14:18;;;;;;;10.88;7.28;;;20.50;81.10;;;;;;4966773;28;20034;-65
2021/07/28 05:16:43;;;;;;;7.78;6.97;;;20.50;81.10;;;;;;4966755;28;20130;-66
2021/07/28 05:19:09;;;;;;;7.97;6.55;;;20.50;81.00;;;;;;4969114;28;20387;-65
2021/07/28 05:21:35;;;;;;;13.00;7.35;;;20.60;81.00;;;;;;4966735;28;20069;-65
2021/07/28 05:24:00;;;;;;;8.75;7.53;;;20.60;80.80;;;;;;4967130;28;20030;-66
2021/07/28 05:26:26;;;;;;;9.65;7.10;;;20.60;80.80;;;;;;4968210;28;20049;-66
2021/07/28 05:28:51;;;;;;;8.13;6.97;;;20.60;80.70;;;;;;4968191;28;20118;-65
2021/07/28 05:31:17;;;;;;;8.27;7.32;;;20.70;80.70;;;;;;4969232;28;20563;-65
2021/07/28 05:33:43;;;;;;;9.23;7.25;;;20.70;80.90;;;;;;4968458;28;20035;-66
2021/07/28 05:36:09;;;;;;;10.73;7.93;;;20.70;80.80;;;;;;4966689;28;20057;-66
2021/07/28 05:38:35;;;;;;;8.02;7.20;;;20.70;80.90;;;;;;4964971;28;20043;-65
2021/07/28 05:41:04;;;;;;;8.27;7.40;;;20.70;80.80;;;;;;4968761;28;20042;-66
2021/07/28 05:43:30;;;;;;;8.40;7.50;;;20.70;81.00;;;;;;4971820;28;20046;-65
2021/07/28 05:45:56;;;;;;;10.95;7.32;;;20.70;80.90;;;;;;4973151;28;20038;-66
2021/07/28 05:48:22;;;;;;;13.82;8.38;;;20.70;81.00;;;;;;4969083;28;20070;-66
2021/07/28 05:50:48;;;;;;;9.80;7.38;;;20.70;81.20;;;;;;4973189;28;20039;-65
2021/07/28 05:53:14;;;;;;;12.55;7.75;;;20.70;81.30;;;;;;4970374;28;20031;-65
2021/07/28 05:55:40;;;;;;;11.43;7.45;;;20.70;81.50;;;;;;4972955;28;20043;-65
2021/07/28 05:58:06;;;;;;;9.13;7.35;;;20.70;81.50;;;;;;4971985;28;20070;-65
2021/07/28 06:00:31;;;;;;;8.88;7.43;;;20.80;81.50;;;;;;4971990;28;20035;-65
2021/07/28 06:02:57;;;;;;;10.85;7.57;;;20.80;81.20;;;;;;4972691;28;20023;-65
2021/07/28 06:05:23;;;;;;;7.72;6.97;;;20.80;81.00;;;;;;4968851;28;20529;-65
2021/07/28 06:07:48;;;;;;;8.10;7.22;;;20.80;81.00;;;;;;4971015;28;20498;-65
2021/07/28 06:10:14;;;;;;;9.85;7.07;;;20.80;80.80;;;;;;4970240;28;20114;-66
2021/07/28 06:12:41;;;;;;;9.77;7.60;;;20.80;80.90;;;;;;4971443;28;20506;-65
2021/07/28 06:15:07;;;;;;;9.07;6.95;;;20.80;80.80;;;;;;4971945;28;20041;-65
2021/07/28 06:17:33;;;;;;;9.80;7.18;;;20.80;80.80;;;;;;4972309;28;20035;-65
2021/07/28 06:19:59;;;;;;;9.00;7.13;;;20.80;80.80;;;;;;4970931;28;20031;-65
2021/07/28 06:22:25;;;;;;;9.10;7.32;;;20.80;80.70;;;;;;4971558;28;20043;-65
2021/07/28 06:24:50;;;;;;;10.50;7.60;;;20.80;80.70;;;;;;4969953;28;20591;-66
2021/07/28 06:27:17;;;;;;;12.77;7.18;;;20.80;80.60;;;;;;4971883;28;20039;-65
2021/07/28 06:29:42;;;;;;;9.68;7.90;;;20.80;80.60;;;;;;4971958;28;20050;-65
2021/07/28 06:32:08;;;;;;;10.07;7.95;;;20.80;80.70;;;;;;4972997;28;20042;-65
2021/07/28 06:34:34;;;;;;;10.73;8.18;;;20.80;80.70;;;;;;4969599;28;20173;-65
2021/07/28 06:36:59;;;;;;;10.82;9.52;;;20.80;80.70;;;;;;4971963;28;20114;-65
2021/07/28 06:39:26;;;;;;;11.07;9.10;;;20.80;80.70;;;;;;4968594;28;20035;-66
2021/07/28 06:41:51;;;;;;;12.85;9.23;;;20.80;80.60;;;;;;4972084;28;20053;-66
2021/07/28 06:44:17;;;;;;;13.77;8.93;;;20.80;80.60;;;;;;4970405;28;20038;-65
2021/07/28 06:46:43;;;;;;;10.77;8.98;;;20.80;80.70;;;;;;4971507;28;20065;-65
2021/07/28 06:49:08;;;;;;;9.65;8.65;;;20.70;80.70;;;;;;4968398;28;20043;-65
2021/07/28 06:51:34;;;;;;;13.25;9.40;;;20.70;80.80;;;;;;4971875;28;20126;-65
2021/07/28 06:54:00;;;;;;;11.85;9.25;;;20.70;80.80;;;;;;4971637;28;20521;-66
2021/07/28 06:56:25;;;;;;;9.95;8.43;;;20.70;81.00;;;;;;4970945;28;20042;-65
2021/07/28 06:58:51;;;;;;;9.68;8.25;;;20.70;81.00;;;;;;4972317;28;20054;-65
2021/07/28 07:01:16;;;;;;;10.57;8.77;;;20.70;81.10;;;;;;4969954;28;20042;-65
2021/07/28 07:03:42;;;;;;;11.52;8.95;;;20.70;81.20;;;;;;4966694;28;20097;-65
2021/07/28 07:06:08;;;;;;;12.73;9.13;;;20.70;81.20;;;;;;4969930;28;20035;-65
2021/07/28 07:08:33;;;;;;;11.43;9.30;;;20.70;81.20;;;;;;4968993;28;20034;-65
2021/07/28 07:10:59;;;;;;;12.23;8.65;;;20.70;81.30;;;;;;4968210;28;20042;-66
2021/07/28 07:13:25;;;;;;;14.77;9.20;;;20.80;81.50;;;;;;4969662;28;20065;-66
2021/07/28 07:15:51;;;;;;;10.73;8.77;;;20.80;81.50;;;;;;4970006;28;20517;-66
2021/07/28 07:18:17;;;;;;;10.85;8.85;;;20.80;81.50;;;;;;4967253;28;20501;-66
2021/07/28 07:20:42;;;;;;;11.05;8.55;;;20.80;81.50;;;;;;4970420;28;20043;-66
2021/07/28 07:23:08;;;;;;;10.93;8.00;;;20.80;81.60;;;;;;4971695;28;20046;-66
2021/07/28 07:25:34;;;;;;;10.48;8.65;;;20.80;81.70;;;;;;4970068;28;20027;-66
2021/07/28 07:28:02;;;;;;;13.68;8.90;;;20.80;81.60;;;;;;4971504;28;20035;-66
2021/07/28 07:30:28;;;;;;;10.80;8.40;;;20.80;81.70;;;;;;4966806;28;20585;-66
2021/07/28 07:35:38;;;;;;;12.48;8.38;;;20.90;81.70;;;;;;4967685;28;20462;-65
2021/07/28 07:38:04;;;;;;;10.00;8.65;;;20.90;81.70;;;;;;4969545;28;20556;-66
2021/07/28 07:40:29;;;;;;;9.55;8.38;;;20.90;81.70;;;;;;4967511;28;20055;-66
2021/07/28 07:42:55;;;;;;;10.15;8.60;;;20.90;81.60;;;;;;4970175;28;20043;-66
2021/07/28 07:45:21;;;;;;;8.73;7.82;;;20.90;81.30;;;;;;4968524;28;20128;-66
2021/07/28 07:47:46;;;;;;;9.75;8.15;;;20.80;81.10;;;;;;4969560;28;20048;-66
2021/07/28 07:50:12;;;;;;;10.48;8.68;;;20.90;81.20;;;;;;4963342;28;20889;-66
2021/07/28 07:52:38;;;;;;;9.00;8.10;;;20.90;81.20;;;;;;4962615;28;20128;-66
2021/07/28 07:55:04;;;;;;;10.88;8.15;;;20.80;81.30;;;;;;4964265;28;20467;-66
2021/07/28 07:57:30;;;;;;;9.32;7.15;;;20.90;81.50;;;;;;4965445;28;20030;-66
2021/07/28 07:59:55;;;;;;;10.00;7.50;;;20.90;81.30;;;;;;4963815;28;20367;-66
2021/07/28 08:02:21;;;;;;;7.80;6.47;;;20.90;81.30;;;;;;4968275;28;20039;-66
2021/07/28 08:04:46;;;;;;;8.55;7.18;;;20.90;81.10;;;;;;4962642;28;20035;-66
2021/07/28 08:07:12;;;;;;;6.97;5.63;;;20.90;81.00;;;;;;4962745;28;20034;-66
2021/07/28 08:09:38;;;;;;;6.53;5.78;;;20.90;81.00;;;;;;4964802;28;20118;-66
2021/07/28 08:12:04;;;;;;;6.15;5.32;;;20.90;81.00;;;;;;4964225;28;20259;-66
2021/07/28 08:14:30;;;;;;;7.53;5.45;;;20.90;80.40;;;;;;4965127;28;20031;-66
2021/07/28 08:16:56;;;;;;;5.97;5.00;;;20.90;80.10;;;;;;4968436;28;20049;-66
2021/07/28 08:19:21;;;;;;;5.75;5.00;;;20.80;79.90;;;;;;4967974;28;20065;-66
2021/07/28 08:21:47;;;;;;;5.47;4.63;;;20.80;79.50;;;;;;4970517;28;20066;-66
2021/07/28 08:24:14;;;;;;;4.90;4.40;;;20.80;79.30;;;;;;4968396;28;20038;-66
2021/07/28 08:26:40;;;;;;;6.18;5.10;;;20.80;79.40;;;;;;4969725;28;20122;-66
2021/07/28 08:29:06;;;;;;;6.65;5.20;;;20.80;79.40;;;;;;4968465;28;20146;-66
2021/07/28 08:31:31;;;;;;;6.25;5.45;;;20.80;79.70;;;;;;4968805;28;20070;-66
2021/07/28 08:33:57;;;;;;;5.07;4.05;;;20.80;79.80;;;;;;4969732;28;20038;-66
2021/07/28 08:36:22;;;;;;;5.22;4.72;;;20.80;79.10;;;;;;4967166;28;20038;-66
2021/07/28 08:38:48;;;;;;;5.13;4.50;;;20.80;78.90;;;;;;4966232;28;20039;-66
2021/07/28 08:41:18;;;;;;;5.63;4.43;;;20.80;79.10;;;;;;4968256;28;20045;-66
2021/07/28 08:43:50;;;;;;;5.38;4.45;;;20.80;79.10;;;;;;4967592;28;20533;-66
2021/07/28 08:46:17;;;;;;;4.93;4.53;;;20.80;79.30;;;;;;4969487;28;20170;-66
2021/07/28 08:48:42;;;;;;;6.95;4.60;;;20.80;79.40;;;;;;4965460;28;20066;-66
2021/07/28 08:51:08;;;;;;;5.68;5.18;;;20.90;80.40;;;;;;4969288;28;20062;-66
2021/07/28 08:53:34;;;;;;;5.72;5.03;;;20.80;79.60;;;;;;4968946;28;20039;-66
2021/07/28 08:56:01;;;;;;;6.57;4.93;;;20.90;79.80;;;;;;4966107;28;20450;-66
2021/07/28 08:58:28;;;;;;;5.30;4.78;;;20.90;79.60;;;;;;4966890;28;20031;-66
2021/07/28 09:00:56;;;;;;;4.57;3.88;;;20.90;79.40;;;;;;4965389;28;20031;-66
2021/07/28 09:03:22;;;;;;;4.60;3.45;;;21.00;78.70;;;;;;4968605;28;20066;-66
2021/07/28 09:05:49;;;;;;;6.45;3.63;;;20.90;78.30;;;;;;4967673;28;20027;-66
2021/07/28 09:08:24;;;;;;;5.75;3.33;;;20.90;77.30;;;;;;4968639;28;20110;-66
2021/07/28 09:10:55;;;;;;;5.93;3.53;;;20.80;76.80;;;;;;4965191;28;20052;-65
2021/07/28 09:13:32;;;;;;;4.80;3.30;;;20.70;76.70;;;;;;4964862;28;20035;-66
2021/07/28 09:16:04;;;;;;;7.55;3.63;;;20.60;77.10;;;;;;4966494;28;20062;-65
2021/07/28 09:18:47;;;;;;;3.75;3.08;;;20.50;77.10;;;;;;4967016;28;20038;-66
2021/07/28 09:21:19;;;;;;;4.45;3.50;;;20.50;77.20;;;;;;4966997;28;20413;-66
2021/07/28 09:23:46;;;;;;;4.72;3.28;;;20.40;77.60;;;;;;4968775;28;20039;-65
2021/07/28 09:26:31;;;;;;;3.63;3.30;;;20.40;77.70;;;;;;4968956;28;20035;-66
2021/07/28 09:29:15;;;;;;;3.45;3.15;;;20.30;78.00;;;;;;4967748;28;20035;-66
2021/07/28 09:31:43;;;;;;;3.67;3.28;;;20.30;78.20;;;;;;4968345;28;20372;-65
2021/07/28 09:34:34;;;;;;;3.90;3.50;;;20.20;78.20;;;;;;4967849;28;20118;-65
2021/07/28 09:37:04;;;;;;;3.80;3.47;;;20.20;78.80;;;;;;4961259;28;20041;-65
2021/07/28 09:39:39;;;;;;;4.10;3.67;;;20.10;78.90;;;;;;4967292;28;20035;-65
2021/07/28 09:42:27;;;;;;;6.20;5.25;;;20.10;79.10;;;;;;4967480;28;20114;-65
2021/07/28 09:44:55;;;;;;;25.25;16.67;;;20.10;79.70;;;;;;4967154;28;20542;-66
2021/07/28 09:47:25;;;;;;;36.70;25.10;;;20.10;79.30;;;;;;4967937;28;20035;-65
2021/07/28 09:50:11;;;;;;;12.85;10.20;;;20.00;79.50;;;;;;4968652;28;20031;-66
2021/07/28 09:52:37;;;;;;;7.35;6.57;;;20.00;80.10;;;;;;4965396;28;20504;-66
2021/07/28 09:55:22;;;;;;;5.57;4.65;;;20.10;80.00;;;;;;4969030;28;20094;-66
2021/07/28 09:57:55;;;;;;;5.65;4.03;;;20.10;80.30;;;;;;4968266;28;20023;-66
2021/07/28 10:00:21;;;;;;;5.82;4.10;;;20.10;80.30;;;;;;4968432;28;20026;-66
2021/07/28 10:02:48;;;;;;;3.72;3.38;;;20.00;80.10;;;;;;4967762;28;20424;-66
2021/07/28 10:05:19;;;;;;;4.93;4.20;;;20.00;80.10;;;;;;4966145;28;20055;-66
2021/07/28 10:07:47;;;;;;;4.32;3.92;;;20.00;80.30;;;;;;4968347;28;20039;-65
2021/07/28 10:10:13;;;;;;;5.88;4.30;;;19.90;80.40;;;;;;4962747;28;20414;-66
2021/07/28 10:12:40;;;;;;;5.15;4.15;;;19.90;80.70;;;;;;4964222;28;20027;-65
2021/07/28 10:15:08;;;;;;;5.57;4.10;;;20.00;80.80;;;;;;4968169;28;20102;-66
2021/07/28 10:17:37;;;;;;;4.07;3.78;;;20.00;81.00;;;;;;4967227;28;20027;-65
2021/07/28 10:20:04;;;;;;;5.45;3.70;;;20.00;80.80;;;;;;4965693;28;20466;-65
2021/07/28 10:22:31;;;;;;;3.88;3.55;;;20.10;81.00;;;;;;4968200;28;20050;-65
2021/07/28 10:24:58;;;;;;;4.25;3.60;;;20.10;80.90;;;;;;4968928;28;20030;-66
2021/07/28 10:27:24;;;;;;;4.15;3.70;;;20.10;80.80;;;;;;4970897;28;20406;-66
2021/07/28 10:29:50;;;;;;;4.07;3.60;;;20.10;80.80;;;;;;4971056;28;20170;-66
2021/07/28 10:32:32;;;;;;;4.60;4.00;;;20.20;81.20;;;;;;4970526;28;20122;-66
2021/07/28 10:35:28;;;;;;;4.47;3.83;;;20.20;81.70;;;;;;4971125;28;20038;-65
2021/07/28 10:37:56;;;;;;;4.22;3.63;;;20.20;82.10;;;;;;4972181;28;20044;-65
2021/07/28 10:40:24;;;;;;;4.38;3.97;;;20.30;81.50;;;;;;4970660;28;20042;-66
2021/07/28 10:42:50;;;;;;;4.25;3.88;;;20.30;81.90;;;;;;4968416;28;20069;-66
2021/07/28 10:45:18;;;;;;;4.15;3.70;;;20.30;81.30;;;;;;4971571;28;20514;-66
2021/07/28 10:47:50;;;;;;;4.20;3.80;;;20.40;81.00;;;;;;4968018;28;20044;-66
2021/07/28 10:50:22;;;;;;;4.78;4.00;;;20.40;80.80;;;;;;4970257;28;20039;-66
2021/07/28 10:53:08;;;;;;;4.30;3.47;;;20.40;81.00;;;;;;4969648;28;20042;-65
2021/07/28 10:55:38;;;;;;;4.78;3.83;;;20.40;80.70;;;;;;4971095;28;20042;-65
2021/07/28 10:58:07;;;;;;;4.50;4.10;;;20.30;80.60;;;;;;4969638;28;20045;-65
2021/07/28 11:00:36;;;;;;;5.18;3.83;;;20.30;80.80;;;;;;4970536;28;20030;-65
2021/07/28 11:03:04;;;;;;;4.50;4.05;;;20.30;81.20;;;;;;4970297;28;20023;-65
2021/07/28 11:05:31;;;;;;;4.70;3.92;;;20.40;81.30;;;;;;4970097;28;20027;-65
2021/07/28 11:08:03;;;;;;;4.25;3.85;;;20.40;81.00;;;;;;4971527;28;20037;-65
2021/07/28 11:10:51;;;;;;;5.35;4.07;;;20.40;81.00;;;;;;4966383;28;20043;-65
2021/07/28 11:13:19;;;;;;;4.65;4.25;;;20.40;80.60;;;;;;4967334;28;20031;-65
2021/07/28 11:15:55;;;;;;;4.80;3.85;;;20.50;80.80;;;;;;4971847;28;20050;-66
2021/07/28 11:18:51;;;;;;;4.18;3.78;;;20.50;80.60;;;;;;4967551;28;20512;-66
2021/07/28 11:21:18;;;;;;;;;;;20.50;80.60;;;;;;4968842;28;20517;-65
2021/07/28 11:23:56;;;;;;;8.48;6.30;;;20.50;80.40;;;;;;4968860;28;19914;-66
2021/07/28 11:26:24;;;;;;;5.10;4.60;;;20.50;80.20;;;;;;4968480;28;20062;-64
2021/07/28 11:28:54;;;;;;;4.25;3.85;;;20.50;80.10;;;;;;4970174;28;20038;-66
2021/07/28 11:31:32;;;;;;;3.75;3.47;;;20.40;80.20;;;;;;4970934;28;20153;-66
2021/07/28 11:34:07;;;;;;;5.18;4.28;;;20.40;81.10;;;;;;4969002;28;20054;-65
2021/07/28 11:36:33;;;;;;;5.35;4.38;;;20.40;81.20;;;;;;4969826;28;20039;-65
2021/07/28 11:39:13;;;;;;;5.18;4.13;;;20.50;81.20;;;;;;4968972;28;20138;-65
2021/07/28 11:41:39;;;;;;;4.57;3.97;;;20.50;81.90;;;;;;4969160;28;20063;-66
2021/07/28 11:44:05;;;;;;;5.47;4.10;;;20.50;81.70;;;;;;4969905;28;20118;-66
2021/07/28 11:46:30;;;;;;;6.70;3.97;;;20.60;81.70;;;;;;4970941;28;20031;-66
2021/07/28 11:49:00;;;;;;;4.85;4.45;;;20.60;81.50;;;;;;4967563;28;20401;-66
2021/07/28 11:51:28;;;;;;;8.52;4.38;;;20.60;81.20;;;;;;4969616;28;20023;-66
2021/07/28 11:54:10;;;;;;;3.75;3.22;;;20.50;81.00;;;;;;4968845;28;20401;-65
2021/07/28 11:56:36;;;;;;;6.30;4.68;;;20.50;81.30;;;;;;4969928;28;20524;-66
2021/07/28 11:59:02;;;;;;;6.68;4.90;;;20.50;81.10;;;;;;4969829;28;20042;-65
2021/07/28 12:01:33;;;;;;;9.02;5.22;;;20.50;81.70;;;;;;4971235;28;20042;-66
2021/07/28 12:04:04;;;;;;;6.05;4.10;;;20.50;82.10;;;;;;4966100;28;20066;-66
2021/07/28 12:06:35;;;;;;;10.13;6.85;;;20.50;81.80;;;;;;4970513;28;20045;-66
2021/07/28 12:09:23;;;;;;;8.52;6.57;;;20.50;81.90;;;;;;4968937;28;20034;-66
2021/07/28 12:11:57;;;;;;;11.20;8.60;;;20.60;82.20;;;;;;4967848;28;20031;-66
2021/07/28 12:14:38;;;;;;;6.32;4.55;;;20.60;81.50;;;;;;4966759;28;20091;-66
2021/07/28 12:17:07;;;;;;;7.38;4.28;;;20.60;81.70;;;;;;4969513;28;20061;-65
2021/07/28 12:19:36;;;;;;;3.60;3.30;;;20.70;81.50;;;;;;4966710;28;20031;-65
2021/07/28 12:22:03;;;;;;;5.18;4.30;;;20.70;81.50;;;;;;4968725;28;20031;-64
2021/07/28 12:24:47;;;;;;;2.97;2.78;;;20.80;81.10;;;;;;4968577;28;20027;-65
2021/07/28 12:27:25;;;;;;;3.00;2.70;;;20.90;81.30;;;;;;4970375;28;20406;-65
2021/07/28 12:29:59;;;;;;;4.50;3.92;;;20.90;81.60;;;;;;4968727;28;20043;-65
2021/07/28 12:32:43;;;;;;;2.88;2.58;;;21.00;81.60;;;;;;4969228;28;20105;-65
2021/07/28 12:35:14;;;;;;;4.00;2.50;;;21.10;81.00;;;;;;4965229;28;20422;-65
2021/07/28 12:37:41;;;;;;;2.00;1.90;;;21.20;80.30;;;;;;4970664;28;20031;-66
2021/07/28 12:40:07;;;;;;;2.45;2.22;;;21.30;80.10;;;;;;4967711;28;20647;-65
2021/07/28 12:42:34;;;;;;;3.22;2.92;;;21.40;79.70;;;;;;4968698;28;20034;-65
2021/07/28 12:45:00;;;;;;;3.03;2.20;;;21.40;79.40;;;;;;4967022;28;20518;-65
2021/07/28 12:47:26;;;;;;;2.03;1.80;;;21.40;79.30;;;;;;4969002;28;20035;-65
2021/07/28 12:49:52;;;;;;;2.20;2.10;;;21.60;79.10;;;;;;4965525;28;20030;-65
2021/07/28 12:52:18;;;;;;;2.85;1.90;;;21.60;79.10;;;;;;4976836;28;20125;-65
2021/07/28 12:54:44;;;;;;;2.17;1.98;;;21.70;78.80;;;;;;4968895;28;20118;-66
2021/07/28 12:57:10;;;;;;;2.20;2.00;;;21.70;79.00;;;;;;4970180;28;20039;-65